Time;durP1;ratioP1;P1;durP2;ratioP2;P2;SDS_P1;SDS_P2;PMS_P1;PMS_P2;Temp;Humidity;BMP_temperature;BMP_pressure;BME280_temperature;BME280_humidity;BME280_pressure;Samples;Min_cycle;Max_cycle;Signal;HPM_P1;HPM_P2
2022/08/28 00:01:28;;;;;;;;;;;14.40;99.90;;;;;;5094752;28;19912;-74
2022/08/28 00:03:54;;;;;;;;;;;14.40;99.90;;;;;;5094037;28;19916;-74
2022/08/28 00:06:20;;;;;;;;;;;14.40;99.90;;;;;;5093433;28;19938;-73
2022/08/28 00:08:45;;;;;;;;;;;14.40;99.90;;;;;;5093786;28;19908;-74
2022/08/28 00:11:11;;;;;;;;;;;14.40;99.90;;;;;;5094628;28;19908;-74
2022/08/28 00:13:36;;;;;;;;;;;14.40;99.90;;;;;;5094068;28;20302;-74
2022/08/28 00:16:02;;;;;;;;;;;14.40;99.90;;;;;;5094341;28;19954;-74
2022/08/28 00:18:30;;;;;;;;;;;14.40;99.90;;;;;;5094223;28;19908;-73
2022/08/28 00:20:56;;;;;;;;;;;14.40;99.90;;;;;;5093784;28;19908;-73
2022/08/28 00:23:22;;;;;;;;;;;14.40;99.90;;;;;;5094025;28;19939;-74
2022/08/28 00:25:48;;;;;;;;;;;14.40;99.90;;;;;;5093668;28;20007;-73
2022/08/28 00:28:13;;;;;;;;;;;14.40;99.90;;;;;;5094230;28;19915;-73
2022/08/28 00:30:49;;;;;;;;;;;14.40;99.90;;;;;;5093225;28;19914;-74
2022/08/28 00:33:21;;;;;;;;;;;14.40;99.90;;;;;;5094675;28;19913;-74
2022/08/28 00:35:48;;;;;;;;;;;14.40;99.90;;;;;;5093693;28;19942;-73
2022/08/28 00:38:15;;;;;;;;;;;14.40;99.90;;;;;;5094478;28;20383;-73
2022/08/28 00:40:43;;;;;;;;;;;14.40;99.90;;;;;;5092645;28;19961;-72
2022/08/28 00:43:10;;;;;;;;;;;14.40;99.90;;;;;;5094545;28;20374;-73
2022/08/28 00:45:35;;;;;;;;;;;14.40;99.90;;;;;;5092755;28;19965;-72
2022/08/28 00:48:01;;;;;;;;;;;14.40;99.90;;;;;;5092751;28;19912;-73
2022/08/28 00:52:04;;;;;;;;;;;14.50;99.90;;;;;;5094692;28;20376;-73
2022/08/28 00:53:17;;;;;;;;;;;14.50;99.90;;;;;;5094033;28;20353;-73
2022/08/28 00:55:43;;;;;;;;;;;14.50;99.90;;;;;;5093492;28;19915;-73
2022/08/28 00:58:09;;;;;;;;;;;14.40;99.90;;;;;;5094350;28;20353;-73
2022/08/28 01:00:36;;;;;;;;;;;14.50;99.90;;;;;;5094081;28;20015;-73
2022/08/28 01:03:02;;;;;;;;;;;14.50;99.90;;;;;;5093688;28;20364;-73
2022/08/28 01:05:28;;;;;;;;;;;14.50;99.90;;;;;;5093780;28;19912;-73
2022/08/28 01:07:57;;;;;;;;;;;14.50;99.90;;;;;;5093380;28;19915;-74
2022/08/28 01:10:24;;;;;;;;;;;14.50;99.90;;;;;;5093969;28;19912;-73
2022/08/28 01:12:52;;;;;;;;;;;14.50;99.90;;;;;;5093288;28;19931;-73
2022/08/28 01:15:19;;;;;;;;;;;14.50;99.90;;;;;;5093892;28;19908;-73
2022/08/28 01:17:47;;;;;;;;;;;14.50;99.90;;;;;;5093165;28;19915;-74
2022/08/28 01:20:16;;;;;;;;;;;14.50;99.90;;;;;;5093738;28;19908;-73
2022/08/28 01:22:58;;;;;;;;;;;14.50;99.90;;;;;;5093010;28;20353;-73
2022/08/28 01:25:25;;;;;;;;;;;14.50;99.90;;;;;;5093670;28;19919;-72
2022/08/28 01:27:51;;;;;;;;;;;14.50;99.90;;;;;;5093082;28;19915;-73
2022/08/28 01:30:18;;;;;;;;;;;14.60;99.90;;;;;;5093653;28;19908;-73
2022/08/28 01:32:48;;;;;;;;;;;14.60;99.90;;;;;;5092674;28;20387;-73
2022/08/28 01:35:16;;;;;;;;;;;14.50;99.90;;;;;;5093666;28;20369;-73
2022/08/28 01:37:42;;;;;;;;;;;14.60;99.90;;;;;;5092964;28;19998;-73
2022/08/28 01:40:10;;;;;;;;;;;14.60;99.90;;;;;;5093310;28;20332;-74
2022/08/28 01:42:37;;;;;;;;;;;14.60;99.90;;;;;;5093287;28;19919;-73
2022/08/28 01:45:03;;;;;;;;;;;14.60;99.90;;;;;;5092628;28;19978;-73
2022/08/28 01:47:29;;;;;;;;;;;14.60;99.90;;;;;;5093177;28;20357;-73
2022/08/28 01:49:54;;;;;;;;;;;14.50;99.90;;;;;;5092563;28;19912;-73
2022/08/28 01:52:20;;;;;;;;;;;14.50;99.90;;;;;;5093631;28;19908;-73
2022/08/28 01:54:45;;;;;;;;;;;14.50;99.90;;;;;;5092353;28;19915;-73
2022/08/28 01:57:11;;;;;;;;;;;14.50;99.90;;;;;;5092769;28;19958;-73
2022/08/28 01:59:37;;;;;;;;;;;14.50;99.90;;;;;;5093008;28;19977;-73
2022/08/28 02:02:02;;;;;;;;;;;14.40;99.90;;;;;;5092483;28;19979;-73
2022/08/28 02:04:28;;;;;;;;;;;14.40;99.90;;;;;;5093156;28;19912;-73
2022/08/28 02:06:54;;;;;;;;;;;14.40;99.90;;;;;;5092365;28;19908;-73
2022/08/28 02:09:20;;;;;;;;;;;14.40;99.90;;;;;;5093102;28;19955;-73
2022/08/28 02:11:45;;;;;;;;;;;14.40;99.90;;;;;;5092549;28;19962;-73
2022/08/28 02:14:11;;;;;;;;;;;14.30;99.90;;;;;;5092898;28;19915;-73
2022/08/28 02:16:37;;;;;;;;;;;14.30;99.90;;;;;;5092820;28;19908;-73
2022/08/28 02:19:02;;;;;;;;;;;14.20;99.90;;;;;;5092204;28;19934;-73
2022/08/28 02:21:28;;;;;;;;;;;14.20;99.90;;;;;;5092711;28;19915;-73
2022/08/28 02:23:53;;;;;;;;;;;14.20;99.90;;;;;;5092049;28;19912;-73
2022/08/28 02:26:19;;;;;;;;;;;14.20;99.90;;;;;;5092629;28;19958;-73
2022/08/28 02:28:45;;;;;;;;;;;14.10;99.90;;;;;;5093656;28;20387;-73
2022/08/28 02:31:11;;;;;;;;;;;14.10;99.90;;;;;;5097097;28;19908;-73
2022/08/28 02:33:37;;;;;;;;;;;14.10;99.90;;;;;;5096946;28;20058;-73
2022/08/28 02:36:04;;;;;;;;;;;14.10;99.90;;;;;;5096597;28;19931;-73
2022/08/28 02:38:29;;;;;;;;;;;14.10;99.90;;;;;;5096937;28;19908;-73
2022/08/28 02:40:55;;;;;;;;;;;14.10;99.90;;;;;;5096323;28;20346;-73
2022/08/28 02:43:21;;;;;;;;;;;14.00;99.90;;;;;;5096610;28;19916;-73
2022/08/28 02:45:47;;;;;;;;;;;14.00;99.90;;;;;;5095809;28;20426;-73
2022/08/28 02:48:12;;;;;;;;;;;14.00;99.90;;;;;;5096766;28;19912;-73
2022/08/28 02:50:38;;;;;;;;;;;14.00;99.90;;;;;;5096457;28;19915;-73
2022/08/28 02:53:03;;;;;;;;;;;13.90;99.90;;;;;;5095779;28;19974;-73
2022/08/28 02:55:30;;;;;;;;;;;13.90;99.90;;;;;;5095038;28;19908;-73
2022/08/28 02:57:56;;;;;;;;;;;13.90;99.90;;;;;;5095778;28;19973;-73
2022/08/28 03:00:23;;;;;;;;;;;13.90;99.90;;;;;;5096478;28;19908;-73
2022/08/28 03:02:49;;;;;;;;;;;13.90;99.90;;;;;;5095838;28;19912;-73
2022/08/28 03:05:16;;;;;;;;;;;13.90;99.90;;;;;;5096227;28;19924;-73
2022/08/28 03:07:42;;;;;;;;;;;13.90;99.90;;;;;;5095984;28;19908;-73
2022/08/28 03:10:08;;;;;;;;;;;13.90;99.90;;;;;;5095995;28;20073;-73
2022/08/28 03:12:34;;;;;;;;;;;13.80;99.90;;;;;;5096039;28;20377;-73
2022/08/28 03:15:00;;;;;;;;;;;13.90;99.90;;;;;;5095378;28;20014;-74
2022/08/28 03:17:26;;;;;;;;;;;13.80;99.90;;;;;;5096002;28;19908;-73
2022/08/28 03:19:51;;;;;;;;;;;13.80;99.90;;;;;;5094359;28;20291;-73
2022/08/28 03:23:24;;;;;;;;;;;13.70;99.90;;;;;;5096418;28;19981;-73
2022/08/28 03:25:04;;;;;;;;;;;13.70;99.90;;;;;;5095062;28;19948;-73
2022/08/28 03:27:30;;;;;;;;;;;13.70;99.90;;;;;;5095757;28;19908;-73
2022/08/28 03:29:55;;;;;;;;;;;13.70;99.90;;;;;;5095306;28;19908;-73
2022/08/28 03:32:21;;;;;;;;;;;13.70;99.90;;;;;;5095936;28;20357;-73
2022/08/28 03:34:46;;;;;;;;;;;13.70;99.90;;;;;;5095717;28;19926;-73
2022/08/28 03:37:12;;;;;;;;;;;13.80;99.90;;;;;;5095155;28;19908;-73
2022/08/28 03:39:38;;;;;;;;;;;13.70;99.90;;;;;;5095688;28;19908;-73
2022/08/28 03:42:03;;;;;;;;;;;13.80;99.90;;;;;;5095042;28;19915;-73
2022/08/28 03:44:30;;;;;;;;;;;13.80;99.90;;;;;;5095680;28;19912;-73
2022/08/28 03:46:56;;;;;;;;;;;13.80;99.90;;;;;;5094981;28;19916;-73
2022/08/28 03:49:21;;;;;;;;;;;13.80;99.90;;;;;;5095544;28;19912;-73
2022/08/28 03:51:47;;;;;;;;;;;13.80;99.90;;;;;;5095557;28;19908;-73
2022/08/28 03:54:12;;;;;;;;;;;13.80;99.90;;;;;;5094901;28;19951;-73
2022/08/28 03:56:40;;;;;;;;;;;13.80;99.90;;;;;;5094992;28;19908;-73
2022/08/28 03:59:06;;;;;;;;;;;13.80;99.90;;;;;;5094732;28;19915;-73
2022/08/28 04:01:33;;;;;;;;;;;13.80;99.90;;;;;;5095382;28;19908;-73
2022/08/28 04:03:58;;;;;;;;;;;13.70;99.90;;;;;;5094620;28;19916;-73
2022/08/28 04:06:24;;;;;;;;;;;13.70;99.90;;;;;;5095636;28;20117;-73
2022/08/28 04:08:50;;;;;;;;;;;13.70;99.90;;;;;;5094809;28;19959;-73
2022/08/28 04:11:17;;;;;;;;;;;13.70;99.90;;;;;;5094827;28;19914;-73
2022/08/28 04:13:42;;;;;;;;;;;13.70;99.90;;;;;;5095439;28;19911;-74
2022/08/28 04:16:09;;;;;;;;;;;13.70;99.90;;;;;;5094314;28;20269;-73
2022/08/28 04:18:36;;;;;;;;;;;13.60;99.90;;;;;;5094897;28;20013;-73
2022/08/28 04:21:04;;;;;;;;;;;13.60;99.90;;;;;;5094119;28;19947;-73
2022/08/28 04:23:30;;;;;;;;;;;13.60;99.90;;;;;;5094405;28;20007;-73
2022/08/28 04:25:56;;;;;;;;;;;13.60;99.90;;;;;;5094137;28;20017;-74
2022/08/28 04:28:22;;;;;;;;;;;13.60;99.90;;;;;;5093424;28;19919;-73
2022/08/28 04:30:50;;;;;;;;;;;13.70;99.90;;;;;;5094807;28;19908;-73
2022/08/28 04:33:16;;;;;;;;;;;13.70;99.90;;;;;;5094102;28;19915;-73
2022/08/28 04:35:42;;;;;;;;;;;13.60;99.90;;;;;;5094251;28;20369;-73
2022/08/28 04:38:07;;;;;;;;;;;13.60;99.90;;;;;;5093924;28;19908;-73
2022/08/28 04:40:33;;;;;;;;;;;13.70;99.90;;;;;;5094608;28;19912;-73
2022/08/28 04:42:58;;;;;;;;;;;13.70;99.90;;;;;;5093679;28;19912;-73
2022/08/28 04:45:24;;;;;;;;;;;13.70;99.90;;;;;;5094029;28;19916;-73
2022/08/28 04:47:49;;;;;;;;;;;13.70;99.90;;;;;;5094205;28;19933;-74
2022/08/28 04:50:15;;;;;;;;;;;13.70;99.90;;;;;;5093621;28;20003;-73
2022/08/28 04:52:42;;;;;;;;;;;13.70;99.90;;;;;;5093745;28;19908;-73
2022/08/28 04:55:08;;;;;;;;;;;13.60;99.90;;;;;;5094001;28;19931;-73
2022/08/28 04:57:34;;;;;;;;;;;13.70;99.90;;;;;;5094379;28;19912;-74
2022/08/28 04:59:59;;;;;;;;;;;13.70;99.90;;;;;;5093485;28;20412;-73
2022/08/28 05:02:25;;;;;;;;;;;13.70;99.90;;;;;;5093979;28;19912;-73
2022/08/28 05:04:51;;;;;;;;;;;13.60;99.90;;;;;;5094127;28;19912;-72
2022/08/28 05:07:16;;;;;;;;;;;13.70;99.90;;;;;;5092184;28;19912;-74
2022/08/28 05:09:42;;;;;;;;;;;13.70;99.90;;;;;;5094075;28;19908;-74
2022/08/28 05:12:07;;;;;;;;;;;13.70;99.90;;;;;;5093281;28;20337;-74
2022/08/28 05:14:34;;;;;;;;;;;13.80;99.90;;;;;;5093964;28;19908;-74
2022/08/28 05:16:59;;;;;;;;;;;13.70;99.90;;;;;;5093295;28;20002;-72
2022/08/28 05:19:26;;;;;;;;;;;13.70;99.90;;;;;;5093781;28;20034;-72
2022/08/28 05:21:51;;;;;;;;;;;13.70;99.90;;;;;;5093652;28;20010;-73
2022/08/28 05:24:17;;;;;;;;;;;13.70;99.90;;;;;;5093127;28;19995;-72
2022/08/28 05:26:43;;;;;;;;;;;13.80;99.90;;;;;;5093552;28;19915;-73
2022/08/28 05:29:09;;;;;;;;;;;13.80;99.90;;;;;;5092706;28;19915;-73
2022/08/28 05:31:36;;;;;;;;;;;13.80;99.90;;;;;;5093547;28;20371;-73
2022/08/28 05:34:03;;;;;;;;;;;13.80;99.90;;;;;;5092764;28;20017;-73
2022/08/28 05:36:31;;;;;;;;;;;13.90;99.90;;;;;;5093536;28;19908;-73
2022/08/28 05:38:56;;;;;;;;;;;13.90;99.90;;;;;;5093330;28;19909;-73
2022/08/28 05:41:24;;;;;;;;;;;13.90;99.90;;;;;;5093261;28;19915;-73
2022/08/28 05:43:49;;;;;;;;;;;13.90;99.90;;;;;;5093386;28;19916;-73
2022/08/28 05:46:15;;;;;;;;;;;13.90;99.90;;;;;;5092382;28;19961;-73
2022/08/28 05:48:41;;;;;;;;;;;13.90;99.90;;;;;;5093426;28;19908;-73
2022/08/28 05:51:07;;;;;;;;;;;13.90;99.90;;;;;;5092873;28;20319;-73
2022/08/28 05:53:34;;;;;;;;;;;13.90;99.90;;;;;;5093322;28;19908;-73
2022/08/28 05:56:01;;;;;;;;;;;13.80;99.90;;;;;;5092627;28;20021;-73
2022/08/28 05:58:31;;;;;;;;;;;13.90;99.90;;;;;;5092882;28;19908;-73
2022/08/28 06:01:06;;;;;;;;;;;13.90;99.90;;;;;;5093010;28;19908;-73
2022/08/28 06:03:32;;;;;;;;;;;13.90;99.90;;;;;;5092081;28;19912;-73
2022/08/28 06:05:59;;;;;;;;;;;14.00;99.90;;;;;;5093286;28;20417;-73
2022/08/28 06:08:25;;;;;;;;;;;14.00;99.90;;;;;;5092999;28;19978;-73
2022/08/28 06:10:51;;;;;;;;;;;14.00;99.90;;;;;;5092076;28;20242;-73
2022/08/28 06:13:16;;;;;;;;;;;14.00;99.90;;;;;;5092379;28;19915;-73
2022/08/28 06:15:42;;;;;;;;;;;14.10;99.90;;;;;;5093389;28;19908;-73
2022/08/28 06:18:08;;;;;;;;;;;14.10;99.90;;;;;;5092613;28;19908;-73
2022/08/28 06:20:40;;;;;;;;;;;14.10;99.90;;;;;;5093648;28;19908;-73
2022/08/28 06:23:05;;;;;;;;;;;14.10;99.90;;;;;;5092627;28;19916;-73
2022/08/28 06:25:35;;;;;;;;;;;14.20;99.90;;;;;;5093181;28;20288;-73
2022/08/28 06:28:01;;;;;;;;;;;14.20;99.90;;;;;;5091823;28;20018;-74
2022/08/28 06:30:26;;;;;;;;;;;14.20;99.90;;;;;;5094206;28;19966;-73
2022/08/28 06:32:52;;;;;;;;;;;14.30;99.90;;;;;;5094370;28;19931;-73
2022/08/28 06:35:17;;;;;;;;;;;14.30;99.90;;;;;;5091896;28;20254;-73
2022/08/28 06:37:43;;;;;;;;;;;14.40;99.90;;;;;;5092383;28;19961;-73
2022/08/28 06:40:09;;;;;;;;;;;14.50;99.90;;;;;;5092345;28;19908;-73
2022/08/28 06:42:34;;;;;;;;;;;14.50;99.90;;;;;;5092601;28;19916;-73
2022/08/28 06:45:00;;;;;;;;;;;14.50;99.90;;;;;;5092823;28;20373;-73
2022/08/28 06:47:25;;;;;;;;;;;14.60;99.90;;;;;;5092452;28;19908;-73
2022/08/28 06:49:51;;;;;;;;;;;14.60;99.90;;;;;;5092301;28;19991;-73
2022/08/28 06:52:17;;;;;;;;;;;14.70;99.90;;;;;;5090917;28;19908;-73
2022/08/28 06:54:43;;;;;;;;;;;14.70;99.90;;;;;;5092520;28;19960;-73
2022/08/28 06:57:08;;;;;;;;;;;14.70;99.90;;;;;;5092167;28;19995;-73
2022/08/28 06:59:34;;;;;;;;;;;14.80;99.90;;;;;;5092671;28;19961;-73
2022/08/28 07:02:01;;;;;;;;;;;14.90;99.90;;;;;;5092649;28;19953;-74
2022/08/28 07:04:26;;;;;;;;;;;15.00;99.90;;;;;;5092088;28;19919;-74
2022/08/28 07:06:52;;;;;;;;;;;15.00;99.90;;;;;;5092488;28;19912;-73
2022/08/28 07:09:17;;;;;;;;;;;15.20;99.90;;;;;;5092027;28;19908;-74
2022/08/28 07:11:45;;;;;;;;;;;15.20;99.90;;;;;;5092240;28;19981;-73
2022/08/28 07:14:11;;;;;;;;;;;15.20;99.90;;;;;;5092073;28;19908;-73
2022/08/28 07:16:37;;;;;;;;;;;15.30;99.90;;;;;;5096030;28;20284;-73
2022/08/28 07:19:04;;;;;;;;;;;15.40;99.90;;;;;;5095963;28;19908;-73
2022/08/28 07:21:30;;;;;;;;;;;15.50;99.90;;;;;;5095908;28;19991;-73
2022/08/28 07:23:56;;;;;;;;;;;15.60;99.90;;;;;;5096001;28;19916;-73
2022/08/28 07:26:22;;;;;;;;;;;15.60;99.90;;;;;;5094167;28;19919;-73
2022/08/28 07:28:49;;;;;;;;;;;15.70;99.90;;;;;;5095730;28;19916;-73
2022/08/28 07:31:17;;;;;;;;;;;15.70;99.90;;;;;;5094722;28;19935;-73
2022/08/28 07:33:43;;;;;;;;;;;15.80;99.90;;;;;;5095946;28;19999;-73
2022/08/28 07:36:11;;;;;;;;;;;15.80;99.90;;;;;;5095166;28;20020;-73
2022/08/28 07:38:36;;;;;;;;;;;15.90;99.90;;;;;;5095798;28;20361;-72
2022/08/28 07:41:02;;;;;;;;;;;16.00;99.90;;;;;;5095703;28;19961;-73
2022/08/28 07:46:13;;;;;;;;;;;16.10;99.90;;;;;;5095140;28;20029;-73
2022/08/28 07:48:40;;;;;;;;;;;16.20;99.90;;;;;;5094579;28;20266;-73
2022/08/28 07:51:06;;;;;;;;;;;16.30;99.90;;;;;;5095389;28;19912;-73
2022/08/28 07:53:33;;;;;;;;;;;16.40;99.90;;;;;;5095340;28;19948;-73
2022/08/28 07:55:58;;;;;;;;;;;16.40;99.90;;;;;;5095410;28;19908;-73
2022/08/28 07:58:24;;;;;;;;;;;16.50;99.90;;;;;;5094587;28;19919;-72
2022/08/28 08:00:51;;;;;;;;;;;16.50;99.90;;;;;;5095374;28;19908;-73
2022/08/28 08:03:16;;;;;;;;;;;16.60;99.90;;;;;;5094536;28;20007;-73
2022/08/28 08:05:50;;;;;;;;;;;16.60;99.90;;;;;;5095562;28;19955;-73
2022/08/28 08:08:15;;;;;;;;;;;16.70;99.90;;;;;;5094502;28;19935;-73
2022/08/28 08:10:41;;;;;;;;;;;16.70;99.90;;;;;;5094757;28;19908;-74
2022/08/28 08:13:07;;;;;;;;;;;16.70;99.90;;;;;;5094260;28;20006;-74
2022/08/28 08:15:33;;;;;;;;;;;16.70;99.90;;;;;;5094448;28;20423;-73
2022/08/28 08:17:59;;;;;;;;;;;16.70;99.90;;;;;;5094591;28;19908;-74
2022/08/28 08:20:24;;;;;;;;;;;16.70;99.90;;;;;;5094310;28;20345;-74
2022/08/28 08:22:50;;;;;;;;;;;16.80;99.90;;;;;;5094306;28;19912;-73
2022/08/28 08:25:16;;;;;;;;;;;16.90;99.90;;;;;;5094437;28;19916;-73
2022/08/28 08:27:42;;;;;;;;;;;16.90;99.90;;;;;;5093624;28;19908;-73
2022/08/28 08:30:07;;;;;;;;;;;17.00;99.90;;;;;;5094651;28;20335;-73
2022/08/28 08:32:33;;;;;;;;;;;17.10;99.90;;;;;;5093823;28;19915;-74
2022/08/28 08:34:59;;;;;;;;;;;17.10;99.90;;;;;;5092552;28;20020;-73
2022/08/28 08:37:24;;;;;;;;;;;17.10;99.90;;;;;;5092821;28;20300;-73
2022/08/28 08:39:52;;;;;;;;;;;17.20;99.90;;;;;;5094718;28;20349;-73
2022/08/28 08:42:24;;;;;;;;;;;17.30;99.90;;;;;;5093795;28;19916;-73
2022/08/28 08:44:51;;;;;;;;;;;17.30;99.90;;;;;;5094491;28;19913;-73
2022/08/28 08:47:35;;;;;;;;;;;17.30;99.90;;;;;;5093838;28;19908;-73
2022/08/28 08:50:21;;;;;;;;;;;17.30;99.90;;;;;;5094252;28;20246;-73
2022/08/28 08:53:05;;;;;;;;;;;17.40;99.90;;;;;;5093765;28;19953;-73
2022/08/28 08:55:40;;;;;;;;;;;17.50;99.90;;;;;;5093206;28;19904;-73
2022/08/28 08:58:11;;;;;;;;;;;17.50;99.90;;;;;;5093911;28;19908;-73
2022/08/28 09:00:57;;;;;;;;;;;17.60;99.90;;;;;;5094379;28;19915;-73
2022/08/28 09:03:25;;;;;;;;;;;17.70;99.90;;;;;;5093003;28;19912;-73
2022/08/28 09:05:57;;;;;;;;;;;17.80;99.90;;;;;;5092766;28;20285;-73
2022/08/28 09:08:28;;;;;;;;;;;17.90;99.90;;;;;;5093166;28;19908;-73
2022/08/28 09:11:00;;;;;;;;;;;17.90;99.90;;;;;;5093899;28;19917;-73
2022/08/28 09:13:34;;;;;;;;;;;17.90;99.90;;;;;;5093120;28;19973;-73
2022/08/28 09:16:03;;;;;;;;;;;17.90;99.90;;;;;;5093433;28;19912;-72
2022/08/28 09:18:31;;;;;;;;;;;18.00;99.90;;;;;;5093268;28;19999;-73
2022/08/28 09:20:58;;;;;;;;;;;17.90;99.90;;;;;;5093827;28;19908;-73
2022/08/28 09:23:24;;;;;;;;;;;17.90;99.90;;;;;;5093243;28;19911;-73
2022/08/28 09:25:50;;;;;;;;;;;18.00;99.90;;;;;;5093704;28;20011;-72
2022/08/28 09:28:17;;;;;;;;;;;18.10;99.90;;;;;;5093136;28;19999;-73
2022/08/28 09:30:50;;;;;;;;;;;18.20;99.90;;;;;;5093452;28;19958;-73
2022/08/28 09:33:26;;;;;;;;;;;18.10;99.90;;;;;;5092344;28;19915;-73
2022/08/28 09:35:51;;;;;;;;;;;18.10;99.90;;;;;;5093569;28;19920;-73
2022/08/28 09:38:19;;;;;;;;;;;18.10;99.90;;;;;;5092796;28;19931;-73
2022/08/28 09:43:32;;;;;;;;;;;18.20;99.90;;;;;;5092260;28;19919;-71
2022/08/28 09:46:16;;;;;;;;;;;18.40;99.90;;;;;;5093151;28;19912;-73
2022/08/28 09:48:43;;;;;;;;;;;18.50;99.90;;;;;;5093222;28;19995;-73
2022/08/28 09:51:08;;;;;;;;;;;18.50;99.90;;;;;;5093122;28;19967;-73
2022/08/28 09:53:36;;;;;;;;;;;18.40;99.90;;;;;;5092589;28;20388;-73
2022/08/28 09:56:07;;;;;;;;;;;18.50;99.90;;;;;;5091668;28;19969;-73
2022/08/28 09:58:38;;;;;;;;;;;18.60;99.90;;;;;;5090801;28;20296;-73
2022/08/28 10:01:10;;;;;;;;;;;18.70;99.90;;;;;;5092611;28;19908;-73
2022/08/28 10:03:41;;;;;;;;;;;18.70;99.90;;;;;;5092303;28;20273;-73
2022/08/28 10:06:14;;;;;;;;;;;18.80;99.90;;;;;;5092443;28;19912;-73
2022/08/28 10:08:42;;;;;;;;;;;18.90;99.90;;;;;;5092279;28;20369;-73
2022/08/28 10:11:31;;;;;;;;;;;18.90;99.90;;;;;;5092812;28;19996;-72
2022/08/28 10:14:05;;;;;;;;;;;19.00;99.90;;;;;;5072926;28;19916;-73
2022/08/28 10:16:41;;;;;;;;;;;18.90;99.90;;;;;;5092252;28;19908;-74
2022/08/28 10:19:15;;;;;;;;;;;18.90;99.90;;;;;;5092930;28;19912;-73
2022/08/28 10:21:47;;;;;;;;;;;18.80;99.90;;;;;;5092221;28;20315;-73
2022/08/28 10:24:32;;;;;;;;;;;18.70;99.90;;;;;;5092677;28;20015;-73
2022/08/28 10:27:07;;;;;;;;;;;18.70;99.90;;;;;;5092810;28;19937;-73
2022/08/28 10:29:46;;;;;;;;;;;18.90;99.90;;;;;;5091781;28;20258;-73
2022/08/28 10:32:21;;;;;;;;;;;18.90;99.90;;;;;;5091647;28;20345;-73
2022/08/28 10:34:46;;;;;;;;;;;19.00;99.90;;;;;;5092428;28;19920;-74
2022/08/28 10:37:21;;;;;;;;;;;18.90;99.90;;;;;;5092668;28;20049;-73
2022/08/28 10:39:47;;;;;;;;;;;19.00;99.90;;;;;;5091401;28;19967;-73
2022/08/28 10:42:15;;;;;;;;;;;19.00;99.90;;;;;;5092623;28;19916;-73
2022/08/28 10:44:49;;;;;;;;;;;19.00;99.90;;;;;;5092093;28;19912;-73
2022/08/28 10:47:16;;;;;;;;;;;19.10;99.90;;;;;;5092458;28;19912;-74
2022/08/28 10:49:44;;;;;;;;;;;19.10;99.90;;;;;;5093145;28;19915;-71
2022/08/28 10:52:14;;;;;;;;;;;19.00;99.90;;;;;;5094893;28;19912;-73
2022/08/28 10:54:43;;;;;;;;;;;19.10;99.90;;;;;;5095192;28;19908;-73
2022/08/28 10:57:17;;;;;;;;;;;19.30;99.90;;;;;;5095815;28;19908;-73
2022/08/28 10:59:45;;;;;;;;;;;19.10;99.90;;;;;;5095935;28;19915;-73
2022/08/28 11:02:12;;;;;;;;;;;19.20;99.90;;;;;;5095798;28;19908;-73
2022/08/28 11:04:37;;;;;;;;;;;19.10;99.90;;;;;;5095560;28;20369;-74
2022/08/28 11:07:07;;;;;;;;;;;19.10;99.90;;;;;;5095813;28;19908;-73
2022/08/28 11:09:40;;;;;;;;;;;19.10;99.90;;;;;;5095377;28;19912;-74
2022/08/28 11:12:08;;;;;;;;;;;19.10;99.90;;;;;;5095600;28;20014;-73
2022/08/28 11:14:36;;;;;;;;;;;19.10;99.90;;;;;;5095111;28;19954;-72
2022/08/28 11:17:06;;;;;;;;;;;19.20;99.90;;;;;;5095588;28;19915;-72
2022/08/28 11:19:38;;;;;;;;;;;19.30;99.90;;;;;;5094614;28;19908;-73
2022/08/28 11:22:13;;;;;;;;;;;19.20;99.90;;;;;;5095751;28;19954;-73
2022/08/28 11:24:39;;;;;;;;;;;19.20;99.90;;;;;;5094573;28;20362;-72
2022/08/28 11:27:24;;;;;;;;;;;19.20;99.90;;;;;;5095327;28;19912;-72
2022/08/28 11:29:56;;;;;;;;;;;19.00;99.90;;;;;;5095585;28;20003;-73
2022/08/28 11:32:27;;;;;;;;;;;18.80;99.90;;;;;;5095112;28;20002;-73
2022/08/28 11:35:19;;;;;;;;;;;18.80;99.90;;;;;;5095193;28;19920;-73
2022/08/28 11:37:46;;;;;;;;;;;18.80;99.90;;;;;;5078476;28;19909;-73
2022/08/28 11:40:15;;;;;;;;;;;19.00;99.90;;;;;;5094399;28;19916;-72
2022/08/28 11:42:40;;;;;;;;;;;19.00;99.90;;;;;;5095023;28;20130;-73
2022/08/28 11:45:16;;;;;;;;;;;19.00;99.90;;;;;;5095608;28;20376;-73
2022/08/28 11:47:46;;;;;;;;;;;18.70;99.90;;;;;;5095038;28;19912;-73
2022/08/28 11:50:30;;;;;;;;;;;18.70;99.90;;;;;;5095491;28;19908;-72
2022/08/28 11:52:56;;;;;;;;;;;18.70;99.90;;;;;;5095521;28;19908;-73
2022/08/28 11:55:45;;;;;;;;;;;18.70;99.90;;;;;;5095244;28;19908;-75
2022/08/28 11:58:15;;;;;;;;;;;18.80;99.90;;;;;;5089375;28;20427;-73
2022/08/28 12:01:02;;;;;;;;;;;18.90;99.90;;;;;;5093681;28;20357;-73
2022/08/28 12:03:39;;;;;;;;;;;18.80;99.90;;;;;;5094737;28;20379;-74
2022/08/28 12:06:05;;;;;;;;;;;18.80;99.90;;;;;;5095149;28;19912;-73
2022/08/28 12:08:43;;;;;;;;;;;18.80;99.90;;;;;;5094392;28;19914;-73
2022/08/28 12:11:09;;;;;;;;;;;18.90;99.90;;;;;;5095049;28;19915;-73
2022/08/28 12:13:50;;;;;;;;;;;19.00;99.90;;;;;;5094497;28;19999;-73
2022/08/28 12:16:16;;;;;;;;;;;19.00;99.90;;;;;;5095049;28;19953;-74
2022/08/28 12:18:42;;;;;;;;;;;19.00;99.90;;;;;;5094426;28;20314;-73
2022/08/28 12:21:21;;;;;;;;;;;19.10;99.90;;;;;;5095117;28;20502;-74
2022/08/28 12:24:01;;;;;;;;;;;19.10;99.90;;;;;;5093881;28;19912;-73
2022/08/28 12:26:34;;;;;;;;;;;19.20;99.90;;;;;;5094227;28;19959;-74
2022/08/28 12:29:15;;;;;;;;;;;19.10;99.90;;;;;;5095030;28;19908;-74
2022/08/28 12:34:49;;;;;;;;;;;19.20;99.90;;;;;;5093837;28;19927;-74
2022/08/28 12:37:18;;;;;;;;;;;19.40;99.90;;;;;;5094605;28;19912;-73
2022/08/28 12:39:43;;;;;;;;;;;19.20;99.90;;;;;;5092594;28;19908;-74
2022/08/28 12:42:15;;;;;;;;;;;19.30;99.90;;;;;;5094595;28;19915;-73
2022/08/28 12:44:41;;;;;;;;;;;19.30;99.90;;;;;;5093550;28;19969;-73
2022/08/28 12:47:06;;;;;;;;;;;19.40;99.90;;;;;;5094502;28;19909;-72
2022/08/28 12:49:34;;;;;;;;;;;19.40;99.90;;;;;;5093552;28;19908;-73
2022/08/28 12:52:11;;;;;;;;;;;19.40;99.90;;;;;;5094288;28;19908;-73
2022/08/28 12:54:37;;;;;;;;;;;19.30;99.90;;;;;;5093622;28;19943;-73
2022/08/28 12:57:04;;;;;;;;;;;19.20;99.90;;;;;;5094348;28;20405;-72
2022/08/28 12:59:38;;;;;;;;;;;19.20;99.90;;;;;;5093595;28;19953;-73
2022/08/28 13:02:06;;;;;;;;;;;19.20;99.90;;;;;;5092676;28;20307;-73
2022/08/28 13:04:33;;;;;;;;;;;19.00;99.90;;;;;;5093481;28;19912;-74
2022/08/28 13:07:09;;;;;;;;;;;19.00;99.90;;;;;;5094044;28;19912;-73
2022/08/28 13:09:35;;;;;;;;;;;19.00;99.90;;;;;;5093220;28;20276;-73
2022/08/28 13:12:01;;;;;;;;;;;19.00;99.90;;;;;;5093490;28;19908;-73
2022/08/28 13:14:53;;;;;;;;;;;19.10;99.90;;;;;;5093780;28;20265;-74
2022/08/28 13:17:38;;;;;;;;;;;19.00;99.90;;;;;;5091352;28;19920;-72
2022/08/28 13:20:05;;;;;;;;;;;19.00;99.90;;;;;;5093658;28;19909;-72
2022/08/28 13:22:33;;;;;;;;;;;19.00;99.90;;;;;;5092973;28;19923;-73
2022/08/28 13:24:59;;;;;;;;;;;19.00;99.90;;;;;;5093310;28;19912;-72
2022/08/28 13:27:25;;;;;;;;;;;18.90;99.90;;;;;;5093695;28;19912;-72
2022/08/28 13:30:20;;;;;;;;;;;19.00;99.90;;;;;;5092999;28;20358;-73
2022/08/28 13:32:56;;;;;;;;;;;19.00;99.90;;;;;;5083615;28;19912;-72
2022/08/28 13:35:22;;;;;;;;;;;18.90;99.90;;;;;;5093573;28;19920;-72
2022/08/28 13:37:52;;;;;;;;;;;18.90;99.90;;;;;;5092945;28;20564;-72
2022/08/28 13:40:19;;;;;;;;;;;19.00;99.90;;;;;;5093277;28;19908;-73
2022/08/28 13:42:45;;;;;;;;;;;18.90;99.90;;;;;;5091896;28;20325;-73
2022/08/28 13:45:11;;;;;;;;;;;18.80;99.90;;;;;;5091915;28;19912;-73
2022/08/28 13:47:37;;;;;;;;;;;18.90;99.90;;;;;;5092734;28;19963;-73
2022/08/28 13:50:03;;;;;;;;;;;18.90;99.90;;;;;;5093233;28;20376;-73
2022/08/28 13:52:29;;;;;;;;;;;18.90;99.90;;;;;;5092984;28;20323;-73
2022/08/28 13:54:54;;;;;;;;;;;18.80;99.90;;;;;;5092521;28;19912;-73
2022/08/28 13:57:20;;;;;;;;;;;18.80;99.90;;;;;;5093283;28;19909;-73
2022/08/28 13:59:45;;;;;;;;;;;18.80;99.90;;;;;;5092552;28;19940;-73
2022/08/28 14:04:56;;;;;;;;;;;18.70;99.90;;;;;;5092843;28;19962;-73
2022/08/28 14:07:22;;;;;;;;;;;18.70;99.90;;;;;;5092891;28;19908;-73
2022/08/28 14:09:48;;;;;;;;;;;18.80;99.90;;;;;;5092201;28;19908;-73
2022/08/28 14:12:13;;;;;;;;;;;18.70;99.90;;;;;;5092543;28;19908;-72
2022/08/28 14:14:39;;;;;;;;;;;18.70;99.90;;;;;;5092242;28;19943;-75
2022/08/28 14:17:05;;;;;;;;;;;18.60;99.90;;;;;;5091406;28;19934;-73
2022/08/28 14:19:32;;;;;;;;;;;18.50;99.90;;;;;;5092747;28;19909;-73
2022/08/28 14:21:58;;;;;;;;;;;18.40;99.90;;;;;;5092797;28;20336;-73
2022/08/28 14:24:24;;;;;;;;;;;18.30;99.90;;;;;;5093344;28;20314;-73
2022/08/28 14:26:50;;;;;;;;;;;18.30;99.90;;;;;;5096408;28;19912;-73
2022/08/28 14:29:16;;;;;;;;;;;18.20;99.90;;;;;;5096650;28;19915;-73
2022/08/28 14:31:42;;;;;;;;;;;18.30;99.90;;;;;;5096699;28;19915;-74
2022/08/28 14:34:10;;;;;;;;;;;18.40;99.90;;;;;;5095356;28;19908;-73